Time;durP1;ratioP1;P1;durP2;ratioP2;P2;SDS_P1;SDS_P2;PMS_P1;PMS_P2;Temp;Humidity;BMP_temperature;BMP_pressure;BME280_temperature;BME280_humidity;BME280_pressure;Samples;Min_cycle;Max_cycle;Signal;HPM_P1;HPM_P2
2022/10/04 00:01:46;;;;;;;1.70;1.58;;;;;;;13.03;nan;-24180.84;5072675;28;20223;-71
2022/10/04 00:04:31;;;;;;;1.60;1.50;;;;;;;13.09;nan;-24182.41;5093824;28;20627;-71
2022/10/04 00:07:00;;;;;;;1.52;1.40;;;;;;;13.12;nan;-24183.25;5075261;28;20173;-73
2022/10/04 00:09:35;;;;;;;1.48;1.38;;;;;;;12.86;nan;-24176.06;5092968;28;20651;-72
2022/10/04 00:12:02;;;;;;;1.95;1.77;;;;;;;12.63;nan;-24169.59;5093299;28;20608;-74
2022/10/04 00:14:34;;;;;;;3.13;2.03;;;;;;;12.71;nan;-24171.84;5093460;28;20253;-74
2022/10/04 00:17:11;;;;;;;1.58;1.48;;;;;;;13.00;nan;-24179.88;5093670;28;20173;-72
2022/10/04 00:19:40;;;;;;;1.73;1.63;;;;;;;12.99;nan;-24179.59;5093477;28;20242;-72
2022/10/04 00:22:09;;;;;;;2.50;1.98;;;;;;;12.76;nan;-24173.25;5093329;28;20220;-72
2022/10/04 00:24:36;;;;;;;2.00;1.77;;;;;;;12.70;nan;-24171.56;5093021;28;20172;-72
2022/10/04 00:27:21;;;;;;;1.70;1.60;;;;;;;12.40;nan;-24163.41;5093104;28;20738;-74
2022/10/04 00:30:01;;;;;;;2.25;1.70;;;;;;;12.44;nan;-24164.25;5093995;28;20302;-72
2022/10/04 00:32:39;;;;;;;1.55;1.45;;;;;;;12.31;nan;-24160.75;5093730;28;20215;-74
2022/10/04 00:35:23;;;;;;;2.78;2.38;;;;;;;12.21;nan;-24158.06;5075067;28;20229;-73
2022/10/04 00:38:07;;;;;;;1.90;1.70;;;;;;;12.21;nan;-24158.06;5093663;28;20546;-74
2022/10/04 00:40:45;;;;;;;2.50;1.80;;;;;;;12.17;nan;-24156.94;5093379;28;20208;-73
2022/10/04 00:43:24;;;;;;;1.65;1.55;;;;;;;12.21;nan;-24158.06;5093056;28;20189;-72
2022/10/04 00:46:03;;;;;;;1.75;1.60;;;;;;;11.91;nan;-24149.75;5093606;28;20540;-74
2022/10/04 00:48:49;;;;;;;2.60;2.00;;;;;;;12.23;nan;-24158.50;5093275;28;20161;-74
2022/10/04 00:51:47;;;;;;;1.73;1.60;;;;;;;12.40;nan;-24163.41;5093535;28;20172;-74
2022/10/04 00:54:22;;;;;;;2.22;1.85;;;;;;;11.94;nan;-24150.59;5093362;28;20711;-71
2022/10/04 00:56:51;;;;;;;2.00;1.55;;;;;;;11.84;nan;-24147.66;5093420;28;20165;-73
2022/10/04 00:59:19;;;;;;;2.10;1.90;;;;;;;12.25;nan;-24159.19;5093052;28;20574;-73
2022/10/04 01:01:48;;;;;;;1.75;1.65;;;;;;;12.11;nan;-24155.13;5093396;28;20651;-74
2022/10/04 01:04:30;;;;;;;2.15;1.70;;;;;;;12.18;nan;-24157.09;5093189;28;20173;-74
2022/10/04 01:07:02;;;;;;;2.05;1.85;;;;;;;12.20;nan;-24157.78;5074895;28;20644;-73
2022/10/04 01:09:32;;;;;;;1.83;1.65;;;;;;;11.95;nan;-24150.75;5093322;28;20169;-73
2022/10/04 01:12:19;;;;;;;2.22;1.90;;;;;;;11.93;nan;-24150.19;5074243;28;20177;-73
2022/10/04 01:15:01;;;;;;;1.70;1.60;;;;;;;12.18;nan;-24157.09;5092949;28;20254;-73
2022/10/04 01:17:27;;;;;;;1.63;1.42;;;;;;;12.20;nan;-24157.66;5093519;28;20208;-73
2022/10/04 01:19:53;;;;;;;1.77;1.67;;;;;;;12.03;nan;-24152.84;5092973;28;20699;-74
2022/10/04 01:22:34;;;;;;;1.63;1.52;;;;;;;12.54;nan;-24167.06;5092916;28;20220;-74
2022/10/04 01:24:59;;;;;;;2.08;1.80;;;;;;;12.19;nan;-24157.50;5092501;28;20165;-74
2022/10/04 01:27:32;;;;;;;1.63;1.50;;;;;;;12.35;nan;-24162.00;5092850;28;20722;-75
2022/10/04 01:29:59;;;;;;;2.13;1.70;;;;;;;11.33;nan;-24133.56;5092401;28;20498;-74
2022/10/04 01:32:25;;;;;;;2.10;1.90;;;;;;;12.73;nan;-24172.41;5092448;28;20178;-73
2022/10/04 01:34:51;;;;;;;2.15;1.77;;;;;;;12.47;nan;-24165.09;5092720;28;20177;-73
2022/10/04 01:37:16;;;;;;;2.45;1.67;;;;;;;12.31;nan;-24160.75;5092289;28;20218;-74
2022/10/04 01:39:42;;;;;;;2.00;1.80;;;;;;;12.44;nan;-24164.25;5092090;28;20580;-73
2022/10/04 01:42:19;;;;;;;1.67;1.52;;;;;;;12.75;nan;-24172.97;5091880;28;20260;-71
2022/10/04 01:44:54;;;;;;;2.22;1.77;;;;;;;12.50;nan;-24166.09;5092480;28;20230;-73
2022/10/04 01:47:23;;;;;;;1.70;1.60;;;;;;;12.45;nan;-24164.53;5074207;28;20259;-72
2022/10/04 01:49:51;;;;;;;1.60;1.50;;;;;;;12.51;nan;-24166.22;5092245;28;20597;-73
2022/10/04 01:52:21;;;;;;;1.88;1.77;;;;;;;12.74;nan;-24172.84;5091765;28;20169;-72
2022/10/04 01:54:52;;;;;;;1.63;1.50;;;;;;;12.58;nan;-24168.19;5092391;28;20162;-73
2022/10/04 01:57:24;;;;;;;1.80;1.63;;;;;;;12.51;nan;-24166.22;5092756;28;20265;-72
2022/10/04 02:00:01;;;;;;;1.70;1.60;;;;;;;12.52;nan;-24166.66;5092223;28;20575;-73
2022/10/04 02:02:36;;;;;;;1.83;1.60;;;;;;;12.26;nan;-24159.47;5091884;28;20160;-73
2022/10/04 02:05:06;;;;;;;2.13;1.65;;;;;;;12.67;nan;-24170.72;5092171;28;20181;-73
2022/10/04 02:07:33;;;;;;;2.55;2.03;;;;;;;12.88;nan;-24176.63;5073728;28;20174;-73
2022/10/04 02:10:05;;;;;;;1.85;1.75;;;;;;;12.80;nan;-24174.38;5091901;28;20573;-73
2022/10/04 02:12:32;;;;;;;1.73;1.50;;;;;;;12.78;nan;-24173.81;5092257;28;20172;-73
2022/10/04 02:15:01;;;;;;;2.30;1.77;;;;;;;12.42;nan;-24163.69;5091556;28;20260;-72
2022/10/04 02:17:32;;;;;;;1.75;1.60;;;;;;;12.27;nan;-24159.63;5091778;28;20228;-73
2022/10/04 02:20:00;;;;;;;1.83;1.60;;;;;;;12.28;nan;-24159.91;5092088;28;20311;-73
2022/10/04 02:22:26;;;;;;;1.60;1.50;;;;;;;12.50;nan;-24166.09;5091770;28;20209;-74
2022/10/04 02:24:54;;;;;;;1.90;1.73;;;;;;;12.12;nan;-24155.53;5091687;28;20534;-72
2022/10/04 02:27:25;;;;;;;2.15;1.67;;;;;;;12.55;nan;-24167.34;5091484;28;20675;-74
2022/10/04 02:29:51;;;;;;;1.70;1.52;;;;;;;12.52;nan;-24166.50;5091831;28;20550;-73
2022/10/04 02:35:02;;;;;;;3.95;1.65;;;;;;;12.26;nan;-24159.47;5091722;28;20542;-73
2022/10/04 02:37:29;;;;;;;1.95;1.50;;;;;;;12.32;nan;-24161.16;5091156;28;20165;-72
2022/10/04 02:39:54;;;;;;;1.98;1.77;;;;;;;12.27;nan;-24159.63;5091525;28;20203;-72
2022/10/04 02:42:34;;;;;;;2.03;1.83;;;;;;;12.37;nan;-24162.56;5091709;28;20640;-73
2022/10/04 02:45:05;;;;;;;3.53;1.60;;;;;;;12.60;nan;-24168.75;5091131;28;20200;-74
2022/10/04 02:47:43;;;;;;;1.88;1.73;;;;;;;12.67;nan;-24170.72;5091915;28;20277;-72
2022/10/04 02:50:18;;;;;;;1.88;1.60;;;;;;;12.50;nan;-24166.09;5090391;28;20200;-74
2022/10/04 02:52:49;;;;;;;1.60;1.50;;;;;;;12.62;nan;-24169.47;5091486;28;20695;-74
2022/10/04 02:55:30;;;;;;;2.25;2.00;;;;;;;12.61;nan;-24169.03;5073521;28;20268;-73
2022/10/04 02:57:57;;;;;;;2.00;1.80;;;;;;;12.91;nan;-24177.47;5090286;28;20543;-72
2022/10/04 03:00:29;;;;;;;1.98;1.77;;;;;;;12.92;nan;-24177.75;5091543;28;20205;-74
2022/10/04 03:03:08;;;;;;;2.53;2.00;;;;;;;12.63;nan;-24169.59;5090881;28;20181;-74
2022/10/04 03:05:34;;;;;;;2.20;1.52;;;;;;;12.45;nan;-24164.53;5090898;28;20226;-72
2022/10/04 03:08:00;;;;;;;1.98;1.60;;;;;;;12.78;nan;-24173.81;5091578;28;20609;-73
2022/10/04 03:10:26;;;;;;;2.25;1.83;;;;;;;12.90;nan;-24177.06;5091018;28;20674;-72
2022/10/04 03:12:52;;;;;;;1.70;1.60;;;;;;;12.94;nan;-24178.19;5091554;28;20173;-72
2022/10/04 03:15:19;;;;;;;2.10;1.88;;;;;;;12.71;nan;-24172.00;5090994;28;20222;-72
2022/10/04 03:17:45;;;;;;;1.95;1.75;;;;;;;12.99;nan;-24179.59;5090927;28;20166;-73
2022/10/04 03:20:14;;;;;;;2.10;1.90;;;;;;;12.74;nan;-24172.69;5091146;28;20692;-71
2022/10/04 03:22:44;;;;;;;3.20;1.88;;;;;;;12.95;nan;-24178.59;5083465;28;20636;-73
2022/10/04 03:25:35;;;;;;;2.10;1.90;;;;;;;13.02;nan;-24180.56;5075833;28;20601;-74
2022/10/04 03:28:02;;;;;;;2.20;1.83;;;;;;;12.71;nan;-24171.84;5076475;28;20173;-73
2022/10/04 03:30:30;;;;;;;2.22;1.88;;;;;;;12.79;nan;-24174.09;5076802;28;20183;-74
2022/10/04 03:32:57;;;;;;;2.72;1.90;;;;;;;12.81;nan;-24174.66;5075123;28;20206;-73
2022/10/04 03:35:37;;;;;;;1.98;1.77;;;;;;;12.55;nan;-24167.34;5076234;28;20207;-74
2022/10/04 03:38:08;;;;;;;1.90;1.80;;;;;;;12.61;nan;-24169.03;5075802;28;20180;-72
2022/10/04 03:40:36;;;;;;;2.53;1.83;;;;;;;12.48;nan;-24165.38;5076892;28;20185;-75
2022/10/04 03:43:04;;;;;;;1.75;1.65;;;;;;;12.62;nan;-24169.47;5075708;28;20645;-73
2022/10/04 03:45:32;;;;;;;2.40;2.15;;;;;;;12.24;nan;-24158.78;5067232;28;20317;-74
2022/10/04 03:48:04;;;;;;;2.08;1.88;;;;;;;12.42;nan;-24163.69;5079963;28;20764;-72
2022/10/04 03:50:36;;;;;;;2.42;1.83;;;;;;;12.43;nan;-24163.97;5079276;28;20641;-73
2022/10/04 03:53:14;;;;;;;2.10;1.77;;;;;;;12.27;nan;-24159.75;5061036;28;20601;-73
2022/10/04 03:55:43;;;;;;;3.25;2.00;;;;;;;12.28;nan;-24159.91;5079919;28;20192;-72
2022/10/04 03:58:11;;;;;;;2.15;1.85;;;;;;;12.07;nan;-24154.13;5077648;28;20170;-73
2022/10/04 04:00:42;;;;;;;1.77;1.67;;;;;;;12.34;nan;-24161.72;5079592;28;20177;-72
2022/10/04 04:03:15;;;;;;;2.10;1.85;;;;;;;12.36;nan;-24162.16;5079165;28;20197;-72
2022/10/04 04:05:53;;;;;;;2.25;1.75;;;;;;;12.36;nan;-24162.28;5079095;28;20417;-73
2022/10/04 04:08:31;;;;;;;2.33;2.05;;;;;;;12.11;nan;-24155.25;5078347;28;20181;-73
2022/10/04 04:11:01;;;;;;;1.92;1.73;;;;;;;12.13;nan;-24155.66;5079207;28;20213;-74
2022/10/04 04:13:35;;;;;;;2.45;2.00;;;;;;;12.50;nan;-24166.09;5079393;28;20177;-73
2022/10/04 04:16:01;;;;;;;2.00;1.80;;;;;;;12.23;nan;-24158.50;5090129;28;20656;-73
2022/10/04 04:18:33;;;;;;;1.90;1.63;;;;;;;12.32;nan;-24161.03;5095263;28;20257;-73
2022/10/04 04:21:01;;;;;;;1.70;1.60;;;;;;;11.97;nan;-24151.16;5074715;28;20268;-75
2022/10/04 04:23:36;;;;;;;2.00;1.80;;;;;;;12.32;nan;-24161.03;5099727;28;20346;-74
2022/10/04 04:26:23;;;;;;;2.00;1.80;;;;;;;12.49;nan;-24165.81;5093192;28;20177;-72
2022/10/04 04:28:57;;;;;;;1.58;1.48;;;;;;;12.11;nan;-24155.13;5093140;28;20173;-74
2022/10/04 04:32:04;;;;;;;2.10;1.80;;;;;;;12.40;nan;-24163.41;5091097;28;20701;-73
2022/10/04 04:34:33;;;;;;;2.08;1.55;;;;;;;12.20;nan;-24157.66;5086755;28;20189;-72
2022/10/04 04:37:01;;;;;;;1.67;1.52;;;;;;;12.02;nan;-24152.72;5099183;28;20230;-73
2022/10/04 04:39:38;;;;;;;2.40;1.90;;;;;;;12.33;nan;-24161.31;5092871;28;20204;-73
2022/10/04 04:42:15;;;;;;;2.35;1.73;;;;;;;12.49;nan;-24165.81;5093040;28;20236;-72
2022/10/04 04:44:59;;;;;;;2.47;1.70;;;;;;;12.40;nan;-24163.41;5093764;28;20571;-75
2022/10/04 04:47:43;;;;;;;1.70;1.55;;;;;;;12.61;nan;-24169.19;5092115;28;20628;-74
2022/10/04 04:50:16;;;;;;;1.55;1.45;;;;;;;12.53;nan;-24166.78;5090863;28;20173;-75
2022/10/04 04:52:45;;;;;;;1.60;1.50;;;;;;;12.43;nan;-24164.13;5074318;28;20669;-74
2022/10/04 04:55:21;;;;;;;2.10;1.90;;;;;;;12.63;nan;-24169.59;5091583;28;20549;-72
2022/10/04 04:57:52;;;;;;;2.08;1.67;;;;;;;12.89;nan;-24176.91;5080076;28;20629;-74
2022/10/04 05:00:22;;;;;;;2.60;1.77;;;;;;;12.67;nan;-24170.72;5092248;28;20704;-76
2022/10/04 05:02:56;;;;;;;1.75;1.65;;;;;;;13.14;nan;-24183.81;5089950;28;20227;-72
2022/10/04 05:05:29;;;;;;;2.15;1.58;;;;;;;12.87;nan;-24176.34;5090896;28;20751;-72
2022/10/04 05:08:09;;;;;;;2.33;1.63;;;;;;;13.52;nan;-24194.34;5092028;28;20257;-74
2022/10/04 05:10:35;;;;;;;1.95;1.80;;;;;;;12.87;nan;-24176.34;5092774;28;20165;-72
2022/10/04 05:13:03;;;;;;;1.60;1.50;;;;;;;13.30;nan;-24188.16;5091937;28;20641;-72
2022/10/04 05:15:37;;;;;;;1.80;1.70;;;;;;;13.44;nan;-24192.09;5092541;28;20193;-73
2022/10/04 05:18:16;;;;;;;1.95;1.60;;;;;;;13.44;nan;-24192.25;5091082;28;20176;-74
2022/10/04 05:20:48;;;;;;;3.45;1.73;;;;;;;13.65;nan;-24198.13;5092370;28;20177;-72
2022/10/04 05:23:14;;;;;;;1.77;1.65;;;;;;;13.91;nan;-24205.28;5092103;28;20217;-73
2022/10/04 05:25:40;;;;;;;3.47;1.70;;;;;;;14.04;nan;-24208.94;5091948;28;20704;-72
2022/10/04 05:28:10;;;;;;;1.48;1.35;;;;;;;14.31;nan;-24216.22;5095651;28;20188;-75
2022/10/04 05:30:42;;;;;;;2.17;1.98;;;;;;;14.47;nan;-24220.88;5090853;28;20180;-74
2022/10/04 05:33:12;;;;;;;2.03;1.60;;;;;;;14.61;nan;-24224.66;5092528;28;20223;-72
2022/10/04 05:36:08;;;;;;;1.60;1.50;;;;;;;14.76;nan;-24228.72;5092963;28;20165;-74
2022/10/04 05:38:49;;;;;;;1.67;1.58;;;;;;;14.51;nan;-24222.00;5092602;28;20707;-74
2022/10/04 05:41:40;;;;;;;1.45;1.35;;;;;;;14.85;nan;-24231.38;5092313;28;20796;-74
2022/10/04 05:44:28;;;;;;;1.85;1.65;;;;;;;14.82;nan;-24230.53;5092374;28;20280;-73
2022/10/04 05:46:57;;;;;;;1.55;1.45;;;;;;;14.39;nan;-24218.63;5092240;28;20169;-73
2022/10/04 05:49:27;;;;;;;3.17;1.85;;;;;;;14.77;nan;-24229.13;5092316;28;20188;-74
2022/10/04 05:51:59;;;;;;;1.88;1.52;;;;;;;14.48;nan;-24221.00;5092324;28;20184;-75
2022/10/04 05:54:34;;;;;;;2.05;1.80;;;;;;;14.64;nan;-24225.50;5092272;28;20175;-72
2022/10/04 05:57:29;;;;;;;1.75;1.63;;;;;;;14.65;nan;-24225.63;5092203;28;20173;-73
2022/10/04 06:00:06;;;;;;;1.60;1.50;;;;;;;14.75;nan;-24228.56;5092283;28;20185;-74
2022/10/04 06:02:56;;;;;;;2.00;1.90;;;;;;;14.46;nan;-24220.59;5091983;28;20269;-72
2022/10/04 06:05:27;;;;;;;1.73;1.58;;;;;;;14.16;nan;-24212.31;5091824;28;20153;-71
2022/10/04 06:08:00;;;;;;;1.85;1.60;;;;;;;14.59;nan;-24224.22;5091596;28;20677;-73
2022/10/04 06:10:34;;;;;;;1.60;1.42;;;;;;;14.79;nan;-24229.69;5092028;28;20201;-75
2022/10/04 06:13:17;;;;;;;2.17;1.60;;;;;;;14.70;nan;-24227.19;5092377;28;20181;-75
2022/10/04 06:16:04;;;;;;;1.85;1.73;;;;;;;14.42;nan;-24219.31;5091030;28;20177;-73
2022/10/04 06:18:59;;;;;;;1.60;1.40;;;;;;;14.92;nan;-24233.22;5100539;28;20266;-72
2022/10/04 06:21:30;;;;;;;2.35;1.85;;;;;;;14.52;nan;-24222.28;5074068;28;20587;-72
2022/10/04 06:24:10;;;;;;;1.50;1.40;;;;;;;14.56;nan;-24223.25;5092309;28;20247;-73
2022/10/04 06:26:52;;;;;;;1.58;1.48;;;;;;;14.71;nan;-24227.47;5070824;28;20158;-73
2022/10/04 06:29:26;;;;;;;1.70;1.60;;;;;;;15.09;nan;-24237.81;5099103;28;20181;-72
2022/10/04 06:32:10;;;;;;;1.40;1.30;;;;;;;15.32;nan;-24244.28;5091664;28;20254;-74
2022/10/04 06:35:20;;;;;;;1.70;1.60;;;;;;;15.39;nan;-24246.22;5091746;28;20644;-74
2022/10/04 06:38:07;;;;;;;2.35;1.60;;;;;;;15.00;nan;-24235.59;5040641;28;20194;-74
2022/10/04 06:40:38;;;;;;;2.53;1.80;;;;;;;15.17;nan;-24240.22;5071401;28;20676;-72
2022/10/04 06:43:22;;;;;;;2.15;1.77;;;;;;;15.26;nan;-24242.72;5053171;28;20201;-73
2022/10/04 06:46:06;;;;;;;1.95;1.75;;;;;;;15.13;nan;-24238.94;5053057;28;20626;-74
2022/10/04 06:49:02;;;;;;;1.60;1.50;;;;;;;15.20;nan;-24240.91;5071875;28;20649;-74
2022/10/04 06:51:33;;;;;;;2.05;1.77;;;;;;;15.18;nan;-24240.34;5071855;28;20170;-75
2022/10/04 06:54:06;;;;;;;1.90;1.58;;;;;;;15.37;nan;-24245.66;5071115;28;20174;-76
2022/10/04 06:56:40;;;;;;;2.17;1.52;;;;;;;15.33;nan;-24244.56;5071597;28;20169;-75
2022/10/04 06:59:16;;;;;;;2.15;1.42;;;;;;;15.39;nan;-24246.38;5071081;28;20205;-73
2022/10/04 07:01:52;;;;;;;2.08;1.65;;;;;;;15.40;nan;-24246.66;5071090;28;20264;-75
2022/10/04 07:04:17;;;;;;;2.83;1.80;;;;;;;15.80;nan;-24257.56;5053348;28;20243;-73
2022/10/04 07:07:23;;;;;;;5.63;1.70;;;;;;;15.71;nan;-24255.19;5071052;28;20574;-75
2022/10/04 07:09:53;;;;;;;1.55;1.45;;;;;;;15.84;nan;-24258.84;5071438;28;20209;-72
2022/10/04 07:12:19;;;;;;;1.70;1.60;;;;;;;15.65;nan;-24253.50;5070972;28;20163;-74
2022/10/04 07:14:55;;;;;;;1.50;1.40;;;;;;;16.14;nan;-24267.09;5071727;28;20182;-74
2022/10/04 07:17:29;;;;;;;1.83;1.60;;;;;;;16.12;nan;-24266.53;5071710;28;20294;-74
2022/10/04 07:19:56;;;;;;;7.50;1.92;;;;;;;16.27;nan;-24270.72;5074828;28;20194;-73
2022/10/04 07:22:49;;;;;;;2.05;1.63;;;;;;;16.17;nan;-24267.78;5074815;28;20221;-73
2022/10/04 07:25:21;;;;;;;1.35;1.25;;;;;;;16.24;nan;-24269.88;5074976;28;20194;-74
2022/10/04 07:29:19;;;;;;;2.03;1.67;;;;;;;16.59;nan;-24279.53;5075077;28;20252;-75
2022/10/04 07:30:47;;;;;;;2.22;1.60;;;;;;;16.53;nan;-24277.84;5074285;28;20186;-75
2022/10/04 07:33:20;;;;;;;2.53;1.90;;;;;;;16.65;nan;-24281.22;5074724;28;20169;-74
2022/10/04 07:36:06;;;;;;;2.67;1.60;;;;;;;16.43;nan;-24275.06;5074778;28;20166;-74
2022/10/04 07:38:36;;;;;;;1.63;1.52;;;;;;;15.87;nan;-24259.66;5074381;28;22109;-74
2022/10/04 07:41:09;;;;;;;3.33;1.45;;;;;;;15.88;nan;-24259.94;5074244;28;20216;-74
2022/10/04 07:43:54;;;;;;;2.17;1.98;;;;;;;16.37;nan;-24273.25;5074322;28;20170;-75
2022/10/04 07:46:41;;;;;;;1.67;1.50;;;;;;;16.58;nan;-24279.25;5074154;28;20193;-75
2022/10/04 07:49:15;;;;;;;2.10;1.67;;;;;;;16.78;nan;-24284.84;5074653;28;20223;-74
2022/10/04 07:52:03;;;;;;;2.08;1.73;;;;;;;16.45;nan;-24275.63;5055644;28;20641;-74
2022/10/04 07:54:34;;;;;;;1.83;1.63;;;;;;;17.06;nan;-24292.38;5074006;28;20545;-76
2022/10/04 07:57:10;;;;;;;1.95;1.70;;;;;;;16.77;nan;-24284.56;5073741;28;20185;-73
2022/10/04 07:59:54;;;;;;;1.73;1.52;;;;;;;17.21;nan;-24296.56;5073774;28;20200;-73
2022/10/04 08:02:42;;;;;;;2.38;1.38;;;;;;;17.13;nan;-24294.34;5074015;28;20249;-72
2022/10/04 08:05:11;;;;;;;1.98;1.70;;;;;;;17.48;nan;-24304.09;5055959;28;20174;-74
2022/10/04 08:07:46;;;;;;;2.00;1.77;;;;;;;17.28;nan;-24298.38;5073862;28;20170;-74
2022/10/04 08:10:26;;;;;;;1.73;1.50;;;;;;;17.58;nan;-24306.91;5074087;28;20207;-74
2022/10/04 08:12:57;;;;;;;2.00;1.65;;;;;;;18.12;nan;-24321.53;5074485;28;20173;-74
2022/10/04 08:15:34;;;;;;;1.50;1.40;;;;;;;18.35;nan;-24328.09;5073974;28;20223;-74
2022/10/04 08:18:23;;;;;;;1.70;1.50;;;;;;;18.58;nan;-24334.22;5079479;28;20287;-74
2022/10/04 08:21:00;;;;;;;1.30;1.20;;;;;;;18.69;nan;-24337.28;5093496;28;20214;-74
2022/10/04 08:23:40;;;;;;;1.10;1.10;;;;;;;18.29;nan;-24326.41;5093794;28;20217;-73
2022/10/04 08:26:36;;;;;;;1.15;1.05;;;;;;;18.47;nan;-24331.44;5093771;28;20260;-72
2022/10/04 08:29:41;;;;;;;3.28;1.40;;;;;;;18.50;nan;-24332.13;5093657;28;20177;-75
2022/10/04 08:32:44;;;;;;;1.27;1.17;;;;;;;18.63;nan;-24335.63;5093628;28;20177;-74
2022/10/04 08:35:21;;;;;;;2.08;1.38;;;;;;;18.81;nan;-24340.63;5093629;28;20177;-74
2022/10/04 08:38:13;;;;;;;1.30;1.15;;;;;;;18.97;nan;-24345.22;5093816;28;20169;-75
2022/10/04 08:41:20;;;;;;;1.30;1.10;;;;;;;18.72;nan;-24338.13;5093410;28;20216;-74
2022/10/04 08:44:12;;;;;;;1.35;1.10;;;;;;;19.01;nan;-24346.19;5043130;28;20192;-74
2022/10/04 08:46:41;;;;;;;1.60;1.20;;;;;;;19.09;nan;-24348.44;5093074;28;20177;-72
2022/10/04 08:49:09;;;;;;;1.40;1.23;;;;;;;18.98;nan;-24345.38;5092701;28;20173;-73
2022/10/04 08:51:50;;;;;;;1.20;1.20;;;;;;;19.03;nan;-24346.75;5092240;28;20204;-74
2022/10/04 08:54:52;;;;;;;2.20;1.35;;;;;;;19.32;nan;-24354.81;5093472;28;20218;-74
2022/10/04 08:57:17;;;;;;;1.60;1.27;;;;;;;19.33;nan;-24354.97;5093063;28;20541;-75
2022/10/04 09:00:12;;;;;;;1.02;1.00;;;;;;;19.06;nan;-24347.59;5075228;28;20201;-75
2022/10/04 09:03:03;;;;;;;1.25;0.98;;;;;;;18.70;nan;-24337.72;5093247;28;20196;-73
2022/10/04 09:05:54;;;;;;;1.15;1.05;;;;;;;19.04;nan;-24346.91;5093081;28;20226;-75
2022/10/04 09:08:57;;;;;;;1.25;1.10;;;;;;;18.68;nan;-24337.16;5093315;28;20633;-74
2022/10/04 09:11:40;;;;;;;1.30;1.20;;;;;;;18.46;nan;-24331.16;5093088;28;20166;-73
2022/10/04 09:14:44;;;;;;;2.65;1.08;;;;;;;18.43;nan;-24330.19;5093121;28;20153;-73
2022/10/04 09:17:25;;;;;;;1.30;1.20;;;;;;;18.29;nan;-24326.28;5093451;28;20169;-74
2022/10/04 09:20:40;;;;;;;1.10;1.00;;;;;;;18.60;nan;-24334.78;5093004;28;20257;-74
2022/10/04 09:23:38;;;;;;;1.27;1.17;;;;;;;18.64;nan;-24335.91;5093164;28;20243;-74
2022/10/04 09:26:38;;;;;;;2.15;1.30;;;;;;;18.63;nan;-24335.63;5093344;28;20185;-75
2022/10/04 09:29:27;;;;;;;1.30;1.10;;;;;;;18.77;nan;-24339.53;5071621;28;20185;-73
2022/10/04 09:32:06;;;;;;;1.30;1.20;;;;;;;18.93;nan;-24343.97;5079702;28;20187;-73
2022/10/04 09:34:37;;;;;;;1.27;1.10;;;;;;;19.58;nan;-24361.78;5092481;28;20254;-73
2022/10/04 09:37:40;;;;;;;1.00;1.00;;;;;;;19.71;nan;-24365.41;5093116;28;20173;-72
2022/10/04 09:40:42;;;;;;;1.38;1.20;;;;;;;19.41;nan;-24357.19;5092724;28;20197;-74
2022/10/04 09:43:28;;;;;;;1.20;1.10;;;;;;;19.39;nan;-24356.78;5095347;28;20292;-73
2022/10/04 09:46:15;;;;;;;1.10;1.00;;;;;;;19.63;nan;-24363.16;5092647;28;20214;-73
2022/10/04 09:48:58;;;;;;;2.20;1.35;;;;;;;19.26;nan;-24353.00;5092153;28;20176;-74
2022/10/04 09:51:47;;;;;;;1.10;1.00;;;;;;;19.44;nan;-24357.88;5092227;28;20700;-75
2022/10/04 09:54:28;;;;;;;1.30;1.20;;;;;;;19.38;nan;-24356.34;5092751;28;20177;-73
2022/10/04 09:57:19;;;;;;;2.80;1.08;;;;;;;19.50;nan;-24359.56;5092311;28;20196;-75
2022/10/04 09:59:55;;;;;;;1.27;1.00;;;;;;;19.58;nan;-24361.78;5087880;28;20224;-74
2022/10/04 10:02:32;;;;;;;2.25;1.17;;;;;;;19.44;nan;-24357.88;5092318;28;20537;-73
2022/10/04 10:05:09;;;;;;;1.10;1.00;;;;;;;19.26;nan;-24353.16;5092393;28;20169;-73
2022/10/04 10:07:46;;;;;;;1.88;1.58;;;;;;;19.41;nan;-24357.34;5092058;28;20248;-74
2022/10/04 10:16:19;;;;;;;1.30;1.20;;;;;;;19.50;nan;-24359.56;5092627;28;20212;-75
2022/10/04 10:19:13;;;;;;;2.08;1.20;;;;;;;19.55;nan;-24360.94;5092277;28;20196;-74
2022/10/04 10:22:16;;;;;;;1.15;1.00;;;;;;;19.60;nan;-24362.34;5092521;28;20177;-74
2022/10/04 10:24:58;;;;;;;0.80;0.80;;;;;;;19.55;nan;-24360.94;5091919;28;20219;-73
2022/10/04 10:27:39;;;;;;;1.00;0.93;;;;;;;19.68;nan;-24364.69;5091796;28;20238;-72
2022/10/04 10:30:24;;;;;;;1.23;1.05;;;;;;;19.86;nan;-24369.56;5091647;28;20659;-73
2022/10/04 10:33:29;;;;;;;1.00;0.90;;;;;;;20.25;nan;-24380.41;5091723;28;20640;-73
2022/10/04 10:36:24;;;;;;;1.27;1.17;;;;;;;20.14;nan;-24377.22;5077552;28;20207;-75
2022/10/04 10:39:02;;;;;;;1.40;1.30;;;;;;;20.15;nan;-24377.63;5091732;28;20249;-74
2022/10/04 10:41:39;;;;;;;4.88;1.35;;;;;;;20.43;nan;-24385.13;5073311;28;20180;-74
2022/10/04 10:44:25;;;;;;;1.30;1.20;;;;;;;20.53;nan;-24387.91;5091552;28;20173;-74
2022/10/04 10:47:21;;;;;;;1.40;1.23;;;;;;;19.78;nan;-24367.34;5091581;28;20158;-74
2022/10/04 10:49:59;;;;;;;1.20;1.10;;;;;;;20.08;nan;-24375.69;5091749;28;20185;-74
2022/10/04 10:52:53;;;;;;;1.20;1.10;;;;;;;20.17;nan;-24378.03;5089787;28;20222;-73
2022/10/04 10:56:03;;;;;;;1.08;0.98;;;;;;;20.10;nan;-24376.25;5095585;28;20200;-75
2022/10/04 10:58:53;;;;;;;1.20;1.10;;;;;;;20.42;nan;-24384.84;5096183;28;20227;-73
2022/10/04 11:01:36;;;;;;;1.25;1.15;;;;;;;19.95;nan;-24372.06;5095777;28;20165;-75
2022/10/04 11:04:20;;;;;;;1.38;1.23;;;;;;;20.33;nan;-24382.34;5096047;28;20181;-74
2022/10/04 11:07:15;;;;;;;1.20;1.10;;;;;;;20.29;nan;-24381.50;5077827;28;20181;-73
2022/10/04 11:09:58;;;;;;;1.25;1.15;;;;;;;20.48;nan;-24386.53;5060817;28;20181;-74
2022/10/04 11:13:01;;;;;;;1.05;1.00;;;;;;;20.48;nan;-24386.53;5096153;28;20647;-74
2022/10/04 11:15:53;;;;;;;1.05;1.00;;;;;;;20.66;nan;-24391.66;5095614;28;20253;-73
2022/10/04 11:18:21;;;;;;;1.20;1.10;;;;;;;21.17;nan;-24405.53;5095723;28;20183;-73
2022/10/04 11:21:20;;;;;;;1.60;1.20;;;;;;;21.12;nan;-24404.13;5095521;28;20252;-73
2022/10/04 11:24:04;;;;;;;1.88;1.67;;;;;;;21.54;nan;-24415.66;5076543;28;20224;-75
2022/10/04 11:26:29;;;;;;;1.42;1.15;;;;;;;21.71;nan;-24420.34;5094871;28;20165;-73
2022/10/04 11:29:10;;;;;;;1.10;1.00;;;;;;;21.50;nan;-24414.53;5094973;28;20244;-74
2022/10/04 11:31:53;;;;;;;1.00;1.00;;;;;;;21.78;nan;-24422.28;5095359;28;20162;-75
2022/10/04 11:34:28;;;;;;;1.17;1.08;;;;;;;21.30;nan;-24409.13;5094749;28;20181;-75
2022/10/04 11:37:03;;;;;;;1.20;1.00;;;;;;;21.06;nan;-24402.59;5076854;28;20185;-74
2022/10/04 11:39:47;;;;;;;1.15;1.05;;;;;;;20.78;nan;-24394.84;5094219;28;20223;-73
2022/10/04 11:42:40;;;;;;;1.10;0.93;;;;;;;20.62;nan;-24390.41;5095301;28;20192;-72
2022/10/04 11:45:26;;;;;;;1.20;1.10;;;;;;;20.55;nan;-24388.47;5094695;28;20169;-75
2022/10/04 11:48:10;;;;;;;0.90;0.90;;;;;;;20.20;nan;-24378.88;5094860;28;20165;-74
2022/10/04 11:51:06;;;;;;;1.15;1.05;;;;;;;20.45;nan;-24385.81;5093116;28;20169;-74
2022/10/04 11:54:06;;;;;;;1.40;1.30;;;;;;;20.49;nan;-24386.78;5094520;28;20198;-74
2022/10/04 11:56:49;;;;;;;1.08;1.00;;;;;;;20.60;nan;-24389.97;5094164;28;20184;-73
2022/10/04 11:59:30;;;;;;;1.23;1.13;;;;;;;20.74;nan;-24393.72;5075672;28;20197;-72
2022/10/04 12:02:16;;;;;;;1.35;1.25;;;;;;;20.48;nan;-24386.66;5093970;28;20246;-74
2022/10/04 12:05:04;;;;;;;1.45;1.10;;;;;;;20.19;nan;-24378.75;5093344;28;20166;-73
2022/10/04 12:07:38;;;;;;;1.30;1.20;;;;;;;19.94;nan;-24371.66;5075896;28;20196;-73
2022/10/04 12:10:24;;;;;;;1.25;1.15;;;;;;;19.34;nan;-24355.25;5093949;28;20184;-75
2022/10/04 12:12:52;;;;;;;1.20;1.10;;;;;;;19.81;nan;-24368.19;5093751;28;20260;-73
2022/10/04 12:15:38;;;;;;;1.23;1.10;;;;;;;19.90;nan;-24370.53;5075757;28;20188;-72
2022/10/04 12:18:27;;;;;;;1.80;1.30;;;;;;;19.33;nan;-24355.09;5075756;28;20205;-75
2022/10/04 12:21:19;;;;;;;1.92;1.58;;;;;;;19.73;nan;-24366.09;5093216;28;20260;-74
2022/10/04 12:23:52;;;;;;;1.88;1.17;;;;;;;19.60;nan;-24362.34;5056457;28;20286;-74
2022/10/04 12:26:40;;;;;;;1.40;1.30;;;;;;;19.58;nan;-24361.91;5094339;28;20161;-73
2022/10/04 12:29:53;;;;;;;1.58;1.38;;;;;;;19.64;nan;-24363.59;5094242;28;20187;-73
2022/10/04 12:32:29;;;;;;;1.25;1.13;;;;;;;19.70;nan;-24365.25;5071644;28;20207;-74
2022/10/04 12:35:13;;;;;;;1.33;1.13;;;;;;;19.74;nan;-24366.22;5093597;28;20513;-73
2022/10/04 12:38:07;;;;;;;1.30;1.20;;;;;;;19.82;nan;-24368.47;5075712;28;20629;-75
2022/10/04 12:41:04;;;;;;;4.30;1.20;;;;;;;19.73;nan;-24366.09;5075869;28;20682;-75
2022/10/04 12:43:45;;;;;;;1.95;1.50;;;;;;;19.31;nan;-24354.53;5059212;28;20268;-73
2022/10/04 12:46:26;;;;;;;1.10;1.00;;;;;;;19.48;nan;-24359.13;5093221;28;20260;-73